• Join FlightAware (Why Join?)
  • Login
  • US Flag 
05:16AM EDT


 

Airport Tracker/Info


-or-


 

Live Flight TrackerFlight Track Log ✈ ASA122 ✈ 29-Apr-2013 ✈ PAFA / FAI - KSEA

Flight Track Log - Related Links

Times and Time Zones

All times are in EDT time to prevent confusion due to time zone crossing. See the ASA122 flight status page for this flight to view local times or setup timezone preferences in your user account.

Time Position Orientation Groundspeed Altitude Reporting Facility
EDT Latitude Longitude Course Direction KTS MPH feet Rate Location/Type
12:57PM 64.7500 -147.9667 124° Southeast 200 230 4,600  Level Anchorage Center
12:58PM 64.7000 -147.8833 145° Southeast 270 311 7,100 2,700 Climbing Anchorage Center
12:59PM 64.6667 -147.7333 117° Southeast 280 322 10,100 2,400 Climbing Anchorage Center
01:00PM 64.6167 -147.5500 122° Southeast 340 391 11,900 2,400 Climbing Anchorage Center
01:01PM 64.5667 -147.3500 120° Southeast 340 391 14,900 2,760 Climbing Anchorage Center
01:02PM 64.2986 -146.2290 124° Southeast  Level FlightAware Approximate
01:02PM 64.5167 -147.1333 118° Southeast 380 437 17,500  Level Anchorage Center
01:03PM 64.4500 -146.9333 128° Southeast 390 449 20,100 2,280 Climbing Anchorage Center
01:04PM 64.4000 -146.7167 118° Southeast 410 472 22,100 1,980 Climbing Anchorage Center
01:06PM 64.2500 -146.2667 127° Southeast 440 506 26,200 1,920 Climbing Anchorage Center
01:07PM 64.1667 -146.0333 129° Southeast 450 518 28,000 1,740 Climbing Anchorage Center
01:08PM 64.1000 -145.8167 125° Southeast 460 529 29,700 1,800 Climbing Anchorage Center
01:09PM 64.0167 -145.5667 127° Southeast 460 529 31,700 1,680 Climbing Anchorage Center
01:10PM 63.9333 -145.3500 131° Southeast 460 529 33,100 1,200 Climbing Anchorage Center
01:11PM 63.8500 -145.1333 131° Southeast 460 529 34,100 900 Climbing Anchorage Center
01:12PM 63.7667 -144.8833 127° Southeast 470 541 35,000 420 Climbing Anchorage Center
01:13PM 63.7000 -144.6833 127° Southeast 480 552 35,000  Level Anchorage Center
01:14PM 63.6167 -144.4500 129° Southeast 470 541 35,000  Level Anchorage Center
01:15PM 63.5333 -144.2167 129° Southeast 470 541 35,000  Level Anchorage Center
01:16PM 63.4500 -144.0000 131° Southeast 470 541 35,000  Level Anchorage Center
01:17PM 63.3667 -143.7833 131° Southeast 470 541 35,000  Level Anchorage Center
01:18PM 63.2833 -143.5500 128° Southeast 470 541 35,000  Level Anchorage Center
01:19PM 63.2000 -143.3333 130° Southeast 460 529 35,000  Level Anchorage Center
01:20PM 63.1167 -143.1167 130° Southeast 460 529 35,000  Level Anchorage Center
01:21PM 63.0167 -142.9000 135° Southeast 460 529 35,000  Level Anchorage Center
01:22PM 62.9333 -142.6833 130° Southeast 470 541 35,000  Level Anchorage Center
01:23PM 62.8667 -142.4667 124° Southeast 460 529 35,000  Level Anchorage Center
01:24PM 62.7833 -142.2333 128° Southeast 470 541 35,000  Level Anchorage Center
01:25PM 62.6833 -142.0333 137° Southeast 470 541 35,000  Level Anchorage Center
01:26PM 62.6000 -141.8333 132° Southeast 460 529 35,000  Level Anchorage Center
01:27PM 62.5167 -141.6167 130° Southeast 470 541 35,000  Level Anchorage Center
01:28PM 62.4333 -141.4000 130° Southeast 470 541 35,000  Level Anchorage Center
01:29PM 62.3333 -141.2000 137° Southeast 460 529 35,000  Level Anchorage Center
01:31PM 62.1651 -140.8392 132° Southeast  Level FlightAware Approximate
01:38PM 61.5785 -139.5023 132° Southeast  Level FlightAware Approximate
01:38PM 61.4667 -139.2667 148° Southeast 470 541 35,000  Level Anchorage Center
01:39PM 61.4937 -139.3155 134° Southeast  Level FlightAware Approximate
01:39PM 61.3833 -139.0833 133° Southeast 470 541 35,000  Level Anchorage Center
01:40PM 61.4086 -139.1297 134° Southeast  Level FlightAware Approximate
01:40PM 61.2833 -138.9000 139° Southeast 470 541 35,000  Level Anchorage Center
01:41PM 61.3210 -138.9505 148° Southeast  Level FlightAware Approximate
01:41PM 61.1667 -138.7667 151° Southeast 470 541 35,000  Level Anchorage Center
01:42PM 61.2168 -138.8147 148° Southeast  Level FlightAware Approximate
01:42PM 61.0500 -138.6167 148° Southeast 470 541 35,000  Level Anchorage Center
01:43PM 61.1124 -138.6797 148° Southeast  Level FlightAware Approximate
01:43PM 60.9500 -138.4833 147° Southeast 470 541 35,000  Level Anchorage Center
01:44PM 60.8333 -138.3333 148° Southeast 470 541 35,000  Level Anchorage Center
01:45PM 60.7167 -138.2000 151° Southeast 470 541 35,000  Level Anchorage Center
01:46PM 60.6000 -138.0500 148° Southeast 470 541 35,000  Level Anchorage Center
01:47PM 60.5000 -137.9167 147° Southeast 470 541 35,000  Level Anchorage Center
01:48PM 60.4000 -137.8000 150° Southeast 470 541 35,000  Level Anchorage Center
01:49PM 60.3000 -137.6667 147° Southeast 470 541 35,000  Level Anchorage Center
01:50PM 60.1833 -137.5333 150° Southeast 470 541 35,000  Level Anchorage Center
01:51PM 60.0667 -137.4000 150° Southeast 470 541 35,000  Level Anchorage Center
01:52PM 59.9500 -137.2667 150° Southeast 470 541 35,000  Level Anchorage Center
01:53PM 59.8500 -137.1167 143° Southeast 470 541 35,000  Level Anchorage Center
01:54PM 59.7333 -137.0000 153° Southeast 460 529 35,000  Level Anchorage Center
01:55PM 59.6167 -136.8500 147° Southeast 470 541 35,000  Level Anchorage Center
01:56PM 59.5000 -136.7333 153° Southeast 480 552 35,000  Level Anchorage Center
01:57PM 59.3833 -136.5833 147° Southeast 480 552 35,000  Level Anchorage Center
01:58PM 59.2667 -136.4500 150° Southeast 480 552 35,000  Level Anchorage Center
01:59PM 59.1667 -136.3333 149° Southeast 480 552 35,000  Level Anchorage Center
02:00PM 59.0500 -136.2000 150° Southeast 470 541 35,000  Level Anchorage Center
02:01PM 58.9333 -136.0667 149° Southeast 480 552 35,000  Level Anchorage Center
02:02PM 58.8000 -135.9333 153° Southeast 480 552 35,000  Level Anchorage Center
02:03PM 58.6833 -135.8000 149° Southeast 480 552 35,000  Level Anchorage Center
02:04PM 58.5667 -135.6833 152° Southeast 470 541 35,000  Level Anchorage Center
02:05PM 58.4500 -135.5500 149° Southeast 480 552 35,000  Level Anchorage Center
02:06PM 58.3333 -135.4333 152° Southeast 480 552 35,000  Level Anchorage Center
02:07PM 58.2167 -135.3000 149° Southeast 480 552 35,000  Level Anchorage Center
02:08PM 58.1167 -135.1667 145° Southeast 470 541 35,000  Level Anchorage Center
02:09PM 58.0333 -135.0167 136° Southeast 480 552 35,000  Level Anchorage Center
02:10PM 57.9333 -134.8500 138° Southeast 480 552 35,000  Level Anchorage Center
02:11PM 57.8333 -134.6833 138° Southeast 490 564 35,000  Level Anchorage Center
02:12PM 57.7333 -134.5167 138° Southeast 480 552 35,000  Level Anchorage Center
02:13PM 57.6167 -134.3500 143° Southeast 490 564 35,000  Level Anchorage Center
02:14PM 57.5167 -134.1833 138° Southeast 480 552 35,000  Level Anchorage Center
02:15PM 57.4167 -134.0333 141° Southeast 480 552 35,000  Level Anchorage Center
02:16PM 57.3167 -133.8667 138° Southeast 490 564 35,000  Level Anchorage Center
02:17PM 57.2167 -133.7000 138° Southeast 490 564 35,000  Level Anchorage Center
02:18PM 57.1167 -133.5500 141° Southeast 490 564 35,000  Level Anchorage Center
02:19PM 57.0167 -133.3833 138° Southeast 480 552 35,000  Level Anchorage Center
02:20PM 56.9000 -133.2333 145° Southeast 480 552 35,000  Level Anchorage Center
02:21PM 56.8000 -133.0667 138° Southeast 490 564 35,000  Level Anchorage Center
02:22PM 56.7000 -132.9000 138° Southeast 490 564 35,000  Level Anchorage Center
02:23PM 56.6000 -132.7500 140° Southeast 490 564 35,000  Level Anchorage Center
02:24PM 56.4833 -132.6000 145° Southeast 490 564 35,000  Level Anchorage Center
02:25PM 56.3833 -132.4333 137° Southeast 490 564 35,000  Level Anchorage Center
02:26PM 56.2833 -132.2833 140° Southeast 480 552 35,000  Level Anchorage Center
02:27PM 56.1667 -132.1333 144° Southeast 490 564 35,000  Level Anchorage Center
02:28PM 56.0667 -131.9833 140° Southeast 500 575 35,000  Level Anchorage Center
02:29PM 55.9667 -131.8167 137° Southeast 500 575 35,000  Level Anchorage Center
02:30PM 55.8500 -131.6667 144° Southeast 490 564 35,000  Level Anchorage Center
02:31PM 55.7333 -131.5000 141° Southeast 500 575 35,000  Level Anchorage Center
02:32PM 55.6167 -131.3333 141° Southeast 510 587 35,000  Level Anchorage Center
02:33PM 55.5167 -131.2000 143° Southeast 500 575 35,000  Level Anchorage Center
02:34PM 55.4167 -131.0500 140° Southeast 500 575 35,000 -300 Level Anchorage Center
02:35PM 55.3000 -130.9000 144° Southeast 500 575 34,500 -780 Descending Anchorage Center
02:36PM 55.2000 -130.7500 139° Southeast 500 575 33,500 -780 Descending Anchorage Center
02:37PM 55.0833 -130.6000 144° Southeast 500 575 33,000 -300 Descending Anchorage Center
02:38PM 54.9833 -130.4667 143° Southeast 500 575 33,000  Level Anchorage Center
02:39PM 54.8667 -130.3500 150° Southeast 490 564 33,000  Level Vancouver Center
02:40PM 54.7500 -130.1833 140° Southeast 490 564 33,000  Level Vancouver Center
02:41PM 54.6333 -130.0500 146° Southeast 500 575 33,000  Level Vancouver Center
02:42PM 54.5333 -129.9000 139° Southeast 500 575 33,000  Level Vancouver Center
02:43PM 54.4000 -129.7667 150° Southeast 500 575 33,000  Level Vancouver Center
02:44PM 54.3167 -129.6333 137° Southeast 500 575 33,000  Level Vancouver Center
02:45PM 54.1833 -129.4667 144° Southeast 500 575 33,000  Level Vancouver Center
02:46PM 54.0667 -129.3500 150° Southeast 500 575 33,000  Level Vancouver Center
02:47PM 53.9833 -129.1833 130° Southeast 500 575 33,000  Level Vancouver Center
02:48PM 53.8500 -129.0667 153° Southeast 500 575 33,000  Level Vancouver Center
02:49PM 53.7333 -128.9000 140° Southeast 500 575 33,000  Level Vancouver Center
02:50PM 53.6333 -128.7833 145° Southeast 510 587 33,000  Level Vancouver Center
02:51PM 53.5167 -128.6333 143° Southeast 510 587 33,000  Level Vancouver Center
02:52PM 53.4000 -128.5000 146° Southeast 490 564 33,000  Level Vancouver Center
02:53PM 53.3000 -128.3500 138° Southeast 520 598 33,000  Level Vancouver Center
02:54PM 53.1833 -128.2333 149° Southeast 500 575 33,000  Level Vancouver Center
02:55PM 53.0500 -128.0833 146° Southeast 510 587 33,000  Level Vancouver Center
02:56PM 52.9333 -127.9500 145° Southeast 510 587 33,000  Level Vancouver Center
02:57PM 52.8333 -127.8000 138° Southeast 500 575 33,000  Level Vancouver Center
02:58PM 52.7167 -127.6500 142° Southeast 510 587 33,000  Level Vancouver Center
02:59PM 52.6000 -127.5333 149° Southeast 510 587 33,000  Level Vancouver Center
03:00PM 52.4667 -127.3833 146° Southeast 510 587 33,000  Level Vancouver Center
03:01PM 52.3667 -127.2667 145° Southeast 510 587 33,000  Level Vancouver Center
03:02PM 52.2500 -127.1500 149° Southeast 510 587 33,000  Level Vancouver Center
03:03PM 52.1333 -127.0000 142° Southeast 510 587 33,000  Level Vancouver Center
03:04PM 52.0167 -126.8833 148° Southeast 520 598 33,000  Level Vancouver Center
03:05PM 51.8833 -126.7500 148° Southeast 510 587 33,000  Level Vancouver Center
03:06PM 51.7833 -126.6000 137° Southeast 510 587 33,000  Level Vancouver Center
03:07PM 51.6500 -126.4833 151° Southeast 510 587 33,000  Level Vancouver Center
03:08PM 51.5333 -126.3500 145° Southeast 510 587 33,000  Level Vancouver Center
03:09PM 51.4167 -126.2333 148° Southeast 510 587 33,000  Level Vancouver Center
03:10PM 51.3000 -126.1000 144° Southeast 520 598 33,000  Level Vancouver Center
03:11PM 51.1833 -125.9833 148° Southeast 520 598 33,000  Level Vancouver Center
03:12PM 51.0500 -125.8500 148° Southeast 520 598 33,000  Level Vancouver Center
03:13PM 50.9500 -125.7000 137° Southeast 520 598 33,000  Level Vancouver Center
03:14PM 50.8167 -125.5667 148° Southeast 520 598 33,000  Level Vancouver Center
03:15PM 50.7000 -125.4667 151° Southeast 520 598 33,000  Level Vancouver Center
03:16PM 50.5833 -125.3500 148° Southeast 520 598 33,000  Level Vancouver Center
03:17PM 50.4667 -125.2167 144° Southeast 520 598 33,000  Level Vancouver Center
03:18PM 50.3333 -125.0833 147° Southeast 520 598 33,000  Level Vancouver Center
03:19PM 50.2167 -124.9500 144° Southeast 520 598 33,000  Level Vancouver Center
03:20PM 50.0833 -124.8333 151° Southeast 520 598 33,000  Level Vancouver Center
03:21PM 49.9667 -124.7000 144° Southeast 530 610 33,000  Level Vancouver Center
03:22PM 49.8333 -124.5833 151° Southeast 530 610 33,000  Level Vancouver Center
03:23PM 49.7167 -124.4667 147° Southeast 530 610 33,000  Level Vancouver Center
03:24PM 49.6000 -124.3333 143° Southeast 540 621 33,000  Level Vancouver Center
03:25PM 49.4667 -124.2167 150° Southeast 530 610 33,000  Level Vancouver Center
03:26PM 49.3500 -124.1000 147° Southeast 530 610 33,000  Level Vancouver Center
03:27PM 49.2167 -123.9833 150° Southeast 540 621 33,000  Level Vancouver Center
03:28PM 49.0833 -123.8500 147° Southeast 540 621 33,000  Level Vancouver Center
03:29PM 48.9500 -123.7167 147° Southeast 540 621 33,000 -180 Level Vancouver Center
03:30PM 48.8333 -123.6000 147° Southeast 540 621 32,700 -2,160 Descending Vancouver Center
03:31PM 48.7000 -123.4667 147° Southeast 540 621 28,700 -3,540 Descending Vancouver Center
03:32PM 48.5833 -123.3667 150° Southeast 540 621 25,700 -2,820 Descending Vancouver Center
03:33PM 48.4667 -123.2667 150° Southeast 490 564 23,100 -2,640 Descending Vancouver Center
03:34PM 48.3667 -123.1667 146° Southeast 470 541 20,500 -2,220 Descending Vancouver Center
03:36PM 48.2381 -123.0322 145° Southeast 439 505 17,700 -2,160 Descending Seattle Center
03:37PM 48.1411 -122.9442 149° Southeast 412 474 15,200 -2,520 Descending Seattle Center
03:38PM 48.0461 -122.8542 148° Southeast 363 418 12,800 -1,860 Descending Seattle Center
03:39PM 47.9825 -122.7333 128° Southeast 331 381 11,500 -1,380 Descending Seattle Center
03:40PM 47.9294 -122.6336 128° Southeast 317 365 10,000 -1,560 Descending Seattle Center
03:41PM 47.8775 -122.5403 130° Southeast 288 331 8,500 -1,380 Descending Seattle Center
03:42PM 47.8256 -122.4567 133° Southeast 263 303 7,300 -1,560 Descending Seattle Center
03:43PM 47.7642 -122.3983 147° Southeast 266 306 5,400 -1,260 Descending Seattle Center
03:44PM 47.7097 -122.3592 154° Southeast 193 222 4,800 -1,140 Descending Seattle Center
03:45PM 47.6575 -122.3189 153° Southeast 206 237 3,200 -1,200 Descending Seattle Center
03:46PM 47.6039 -122.3092 173° South 186 214 2,400 -720 Descending Seattle Center
03:47PM 47.5617 -122.3094 180° South 176 203 1,900 -420 Descending Seattle Center
03:48PM 47.5131 -122.3100 180° South 162 186 1,600 -600 Descending Seattle Center
03:49PM 47.4733 -122.3122 182° South 127 146 700 -540 Descending Seattle Center
03:50PM 47.4308 -122.3125 180° South 130 150 500 -240 Descending Seattle Center